createdAt,value
2022-08-28T00:00:31.378Z,20.73
2022-08-28T00:02:58.949Z,16.08
2022-08-28T00:05:28.780Z,18.45
2022-08-28T00:07:57.462Z,18.25
2022-08-28T00:10:25.982Z,19.00
2022-08-28T00:12:56.842Z,18.55
2022-08-28T00:15:31.820Z,16.98
2022-08-28T00:18:00.755Z,19.00
2022-08-28T00:20:29.305Z,20.47
2022-08-28T00:22:57.818Z,19.75
2022-08-28T00:25:29.201Z,20.17
2022-08-28T00:27:59.420Z,18.00
2022-08-28T00:30:26.918Z,19.63
2022-08-28T00:32:56.352Z,19.42
2022-08-28T00:35:25.020Z,17.98
2022-08-28T00:37:55.633Z,19.05
2022-08-28T00:40:28.615Z,16.88
2022-08-28T00:42:59.375Z,18.15
2022-08-28T00:45:28.627Z,19.03
2022-08-28T00:47:56.682Z,19.42
2022-08-28T00:50:27.910Z,18.38
2022-08-28T00:53:00.521Z,17.67
2022-08-28T00:55:30.686Z,19.58
2022-08-28T00:58:01.004Z,18.27
2022-08-28T01:00:33.035Z,19.10
2022-08-28T01:03:01.450Z,19.05
2022-08-28T01:05:29.928Z,18.50
2022-08-28T01:07:59.148Z,17.50
2022-08-28T01:10:29.832Z,16.75
2022-08-28T01:12:58.500Z,18.65
2022-08-28T01:15:33.125Z,18.70
2022-08-28T01:18:08.636Z,17.83
2022-08-28T01:20:39.278Z,18.48
2022-08-28T01:23:23.873Z,20.50
2022-08-28T01:25:52.851Z,18.75
2022-08-28T01:28:20.478Z,20.93
2022-08-28T01:30:49.690Z,19.88
2022-08-28T01:33:17.630Z,20.13
2022-08-28T01:35:50.455Z,20.60
2022-08-28T01:38:19.631Z,20.17
2022-08-28T01:40:53.665Z,23.45
2022-08-28T01:43:24.123Z,23.48
2022-08-28T01:45:56.434Z,29.33
2022-08-28T01:48:26.650Z,26.77
2022-08-28T01:50:54.263Z,27.33
2022-08-28T01:53:24.969Z,29.35
2022-08-28T01:55:54.170Z,29.30
2022-08-28T01:58:22.954Z,31.87
2022-08-28T02:00:50.453Z,29.08
2022-08-28T02:03:17.932Z,28.45
2022-08-28T02:05:46.301Z,30.65
2022-08-28T02:08:14.775Z,30.00
2022-08-28T02:10:44.156Z,24.63
2022-08-28T02:13:12.454Z,27.55
2022-08-28T02:15:41.786Z,28.92
2022-08-28T02:18:09.791Z,27.25
2022-08-28T02:20:37.393Z,25.70
2022-08-28T02:23:06.389Z,24.83
2022-08-28T02:25:33.873Z,24.10
2022-08-28T02:28:01.483Z,21.58
2022-08-28T02:30:29.218Z,21.73
2022-08-28T02:32:56.566Z,20.73
2022-08-28T02:35:24.827Z,20.02
2022-08-28T02:37:54.549Z,19.88
2022-08-28T02:40:25.633Z,20.38
2022-08-28T02:42:53.175Z,20.58
2022-08-28T02:45:21.268Z,20.05
2022-08-28T02:47:51.864Z,20.63
2022-08-28T02:50:20.339Z,20.63
2022-08-28T02:52:47.879Z,20.90
2022-08-28T02:55:18.081Z,19.67
2022-08-28T02:57:47.677Z,20.38
2022-08-28T03:00:22.965Z,19.00
2022-08-28T03:02:51.636Z,17.05
2022-08-28T03:05:22.737Z,18.77
2022-08-28T03:07:53.598Z,20.02
2022-08-28T03:10:22.045Z,22.17
2022-08-28T03:12:49.765Z,19.63
2022-08-28T03:15:18.341Z,20.00
2022-08-28T03:17:46.354Z,19.58
2022-08-28T03:20:17.054Z,18.38
2022-08-28T03:23:03.298Z,20.03
2022-08-28T03:25:30.935Z,19.25
2022-08-28T03:27:58.423Z,19.48
2022-08-28T03:30:26.291Z,18.67
2022-08-28T03:32:54.344Z,20.17
2022-08-28T03:35:22.349Z,17.85
2022-08-28T03:37:50.184Z,17.50
2022-08-28T03:40:17.743Z,18.25
2022-08-28T03:42:53.008Z,18.92
2022-08-28T03:45:22.192Z,19.15
2022-08-28T03:47:50.824Z,21.63
2022-08-28T03:50:19.668Z,20.02
2022-08-28T03:52:47.803Z,20.75
2022-08-28T03:55:15.675Z,20.65
2022-08-28T03:57:43.309Z,21.30
2022-08-28T04:00:13.810Z,19.65
2022-08-28T04:02:43.300Z,18.60
2022-08-28T04:05:11.633Z,17.83
2022-08-28T04:07:40.552Z,17.95
2022-08-28T04:10:08.827Z,17.92
2022-08-28T04:12:37.385Z,18.95
2022-08-28T04:15:06.946Z,18.60
2022-08-28T04:17:35.221Z,18.15
2022-08-28T04:20:02.730Z,19.00
2022-08-28T04:22:30.586Z,19.23
2022-08-28T04:24:58.180Z,17.85
2022-08-28T04:27:25.682Z,17.05
2022-08-28T04:29:53.451Z,16.80
2022-08-28T04:32:22.748Z,16.48
2022-08-28T04:34:50.993Z,15.25
2022-08-28T04:37:19.034Z,16.77
2022-08-28T04:39:46.510Z,16.42
2022-08-28T04:42:14.947Z,14.65
2022-08-28T04:44:42.575Z,15.18
2022-08-28T04:47:10.091Z,16.52
2022-08-28T04:49:37.959Z,15.10
2022-08-28T04:52:05.572Z,14.02
2022-08-28T04:54:34.909Z,13.65
2022-08-28T04:57:03.203Z,14.77
2022-08-28T04:59:33.962Z,13.70
2022-08-28T05:02:01.850Z,13.75
2022-08-28T05:04:29.434Z,13.88
2022-08-28T05:06:56.970Z,12.80
2022-08-28T05:09:24.370Z,13.65
2022-08-28T05:11:53.691Z,12.40
2022-08-28T05:14:22.105Z,13.45
2022-08-28T05:16:53.159Z,12.35
2022-08-28T05:19:21.908Z,11.00
2022-08-28T05:21:49.451Z,12.52
2022-08-28T05:24:17.890Z,11.05
2022-08-28T05:26:48.220Z,12.00
2022-08-28T05:29:17.169Z,11.80
2022-08-28T05:31:46.444Z,11.15
2022-08-28T05:34:15.445Z,11.82
2022-08-28T05:36:43.446Z,10.50
2022-08-28T05:39:12.123Z,10.30
2022-08-28T05:41:42.522Z,10.02
2022-08-28T05:44:12.701Z,11.15
2022-08-28T05:46:43.126Z,10.50
2022-08-28T05:49:11.746Z,10.45
2022-08-28T05:51:44.055Z,9.98
2022-08-28T05:54:12.956Z,10.32
2022-08-28T05:56:41.110Z,10.82
2022-08-28T05:59:10.030Z,10.00
2022-08-28T06:01:48.539Z,8.88
2022-08-28T06:04:25.658Z,9.52
2022-08-28T06:06:53.679Z,9.38
2022-08-28T06:09:29.078Z,9.18
2022-08-28T06:11:59.960Z,8.35
2022-08-28T06:14:28.186Z,9.23
2022-08-28T06:16:56.778Z,8.93
2022-08-28T06:19:26.274Z,9.83
2022-08-28T06:24:27.947Z,9.43
2022-08-28T06:26:57.475Z,9.68
2022-08-28T06:29:28.136Z,8.07
2022-08-28T06:34:24.674Z,8.33
2022-08-28T06:36:54.110Z,7.47
2022-08-28T06:39:22.423Z,8.18
2022-08-28T06:41:50.383Z,8.35
2022-08-28T06:44:20.367Z,8.32
2022-08-28T06:46:54.170Z,8.13
2022-08-28T06:49:22.420Z,7.25
2022-08-28T06:51:50.331Z,7.55
2022-08-28T06:54:22.391Z,7.00
2022-08-28T06:56:51.680Z,7.22
2022-08-28T06:59:19.862Z,7.20
2022-08-28T07:01:47.646Z,7.75
2022-08-28T07:04:15.455Z,7.38
2022-08-28T07:06:46.986Z,7.40
2022-08-28T07:09:14.788Z,7.20
2022-08-28T07:11:46.871Z,6.78
2022-08-28T07:14:14.503Z,7.13
2022-08-28T07:16:42.088Z,7.15
2022-08-28T07:19:12.275Z,7.00
2022-08-28T07:21:45.539Z,13.45
2022-08-28T07:24:14.961Z,6.85
2022-08-28T07:26:43.908Z,5.57
2022-08-28T07:29:12.344Z,7.32
2022-08-28T07:31:46.262Z,6.50
2022-08-28T07:34:14.463Z,7.05
2022-08-28T07:36:42.985Z,6.17
2022-08-28T07:39:12.662Z,6.57
2022-08-28T07:41:43.072Z,6.18
2022-08-28T07:44:32.170Z,6.60
2022-08-28T07:47:04.438Z,6.03
2022-08-28T07:49:34.005Z,6.43
2022-08-28T07:52:02.570Z,6.10
2022-08-28T07:54:30.142Z,5.43
2022-08-28T07:56:57.523Z,6.07
2022-08-28T07:59:25.188Z,6.22
2022-08-28T08:01:53.702Z,5.93
2022-08-28T08:04:25.542Z,6.72
2022-08-28T08:06:57.826Z,6.65
2022-08-28T08:09:27.385Z,5.15
2022-08-28T08:11:56.933Z,5.63
2022-08-28T08:16:54.593Z,5.73
2022-08-28T08:19:23.485Z,5.75
2022-08-28T08:21:55.137Z,6.00
2022-08-28T08:24:26.992Z,5.25
2022-08-28T08:27:00.322Z,4.80
2022-08-28T08:29:36.099Z,5.38
2022-08-28T08:32:08.201Z,5.38
2022-08-28T08:34:41.526Z,5.10
2022-08-28T08:37:09.671Z,4.53
2022-08-28T08:39:38.435Z,4.68
2022-08-28T08:42:22.685Z,4.68
2022-08-28T08:44:52.206Z,4.72
2022-08-28T08:47:25.261Z,4.75
2022-08-28T08:49:55.795Z,4.57
2022-08-28T08:52:47.534Z,5.05
2022-08-28T08:55:29.414Z,4.65
2022-08-28T08:58:08.863Z,4.50
2022-08-28T09:01:20.709Z,4.40
2022-08-28T09:03:54.018Z,3.92
2022-08-28T09:06:39.994Z,4.47
2022-08-28T09:09:17.444Z,4.03
2022-08-28T09:12:01.864Z,3.70
2022-08-28T09:14:42.115Z,3.85
2022-08-28T09:17:12.478Z,3.35
2022-08-28T09:19:39.867Z,4.53
2022-08-28T09:22:07.452Z,4.30
2022-08-28T09:24:39.116Z,3.92
2022-08-28T09:27:24.321Z,4.47
2022-08-28T09:30:12.171Z,3.80
2022-08-28T09:32:58.352Z,4.43
2022-08-28T09:35:30.373Z,4.47
2022-08-28T09:38:21.573Z,3.75
2022-08-28T09:41:08.092Z,3.58
2022-08-28T09:43:37.723Z,4.28
2022-08-28T09:46:29.597Z,3.67
2022-08-28T09:49:14.558Z,3.60
2022-08-28T09:51:42.413Z,3.75
2022-08-28T09:54:26.138Z,4.72
2022-08-28T09:56:53.886Z,4.32
2022-08-28T09:59:26.912Z,3.75
2022-08-28T10:02:10.904Z,4.07
2022-08-28T10:04:57.744Z,3.30
2022-08-28T10:07:37.722Z,4.25
2022-08-28T10:10:23.114Z,3.50
2022-08-28T10:12:59.710Z,4.15
2022-08-28T10:15:46.544Z,4.43
2022-08-28T10:18:26.080Z,3.92
2022-08-28T10:21:04.787Z,3.85
2022-08-28T10:23:54.042Z,3.40
2022-08-28T10:26:32.203Z,4.13
2022-08-28T10:29:05.656Z,3.65
2022-08-28T10:31:54.830Z,4.00
2022-08-28T10:34:22.528Z,4.55
2022-08-28T10:37:03.711Z,4.15
2022-08-28T10:39:36.701Z,3.35
2022-08-28T10:42:06.499Z,3.63
2022-08-28T10:44:50.537Z,3.55
2022-08-28T10:47:21.542Z,13.20
2022-08-28T10:49:53.622Z,17.90
2022-08-28T10:52:28.607Z,4.38
2022-08-28T10:55:04.633Z,4.07
2022-08-28T10:57:54.317Z,3.55
2022-08-28T11:00:24.981Z,3.70
2022-08-28T11:02:57.509Z,3.70
2022-08-28T11:05:29.471Z,3.22
2022-08-28T11:08:05.601Z,3.25
2022-08-28T11:10:33.047Z,3.42
2022-08-28T11:13:01.908Z,3.33
2022-08-28T11:18:19.892Z,3.58
2022-08-28T11:21:13.571Z,3.25
2022-08-28T11:23:54.377Z,9.57
2022-08-28T11:26:47.649Z,9.18
2022-08-28T11:29:55.959Z,6.20
2022-08-28T11:32:38.081Z,3.83
2022-08-28T11:35:31.925Z,3.65
2022-08-28T11:37:59.496Z,4.22
2022-08-28T11:40:33.357Z,3.60
2022-08-28T11:43:16.707Z,3.33
2022-08-28T11:45:46.777Z,3.15
2022-08-28T11:48:32.972Z,3.38
2022-08-28T11:51:07.275Z,3.22
2022-08-28T11:53:50.270Z,3.00
2022-08-28T11:57:05.038Z,3.15
2022-08-28T12:00:00.684Z,3.75
2022-08-28T12:02:37.971Z,3.15
2022-08-28T12:05:09.998Z,3.42
2022-08-28T12:07:43.178Z,3.40
2022-08-28T12:10:27.602Z,3.08
2022-08-28T12:13:07.847Z,3.53
2022-08-28T12:15:35.243Z,3.85
2022-08-28T12:18:17.115Z,3.25
2022-08-28T12:20:54.594Z,3.85
2022-08-28T12:24:05.348Z,4.03
2022-08-28T12:26:40.229Z,4.20
2022-08-28T12:29:28.388Z,3.95
2022-08-28T12:32:13.896Z,4.20
2022-08-28T12:34:51.832Z,4.05
2022-08-28T12:37:51.344Z,4.30
2022-08-28T12:40:24.523Z,4.00
2022-08-28T12:43:15.385Z,4.55
2022-08-28T12:45:53.861Z,3.90
2022-08-28T12:48:34.113Z,3.55
2022-08-28T12:51:18.748Z,3.20
2022-08-28T12:53:51.340Z,3.17
2022-08-28T12:56:20.761Z,3.65
2022-08-28T12:58:48.855Z,3.72
2022-08-28T13:01:22.267Z,3.30
2022-08-28T13:03:51.644Z,4.28
2022-08-28T13:06:32.123Z,3.08
2022-08-28T13:09:07.243Z,3.10
2022-08-28T13:11:40.223Z,3.47
2022-08-28T13:14:08.896Z,3.20
2022-08-28T13:16:43.271Z,2.80
2022-08-28T13:19:26.452Z,4.80
2022-08-28T13:22:00.854Z,3.83
2022-08-28T13:24:42.642Z,3.10
2022-08-28T13:27:13.276Z,2.97
2022-08-28T13:29:57.314Z,3.33
2022-08-28T13:32:28.224Z,3.55
2022-08-28T13:35:23.021Z,3.85
2022-08-28T13:37:53.546Z,3.60
2022-08-28T13:40:55.904Z,3.35
2022-08-28T13:43:12.800Z,3.42
2022-08-28T13:45:44.103Z,3.97
2022-08-28T13:48:21.594Z,7.65
2022-08-28T13:50:58.308Z,32.10
2022-08-28T13:53:25.848Z,4.50
2022-08-28T13:55:53.638Z,3.50
2022-08-28T13:58:21.210Z,3.53
2022-08-28T14:00:51.202Z,4.32
2022-08-28T14:03:38.142Z,4.38
2022-08-28T14:06:17.614Z,3.95
2022-08-28T14:08:49.050Z,4.47
2022-08-28T14:11:16.714Z,3.60
2022-08-28T14:13:46.717Z,3.58
2022-08-28T14:16:22.965Z,3.33
2022-08-28T14:18:53.037Z,3.42
2022-08-28T14:21:21.881Z,3.75
2022-08-28T14:23:49.337Z,3.75
2022-08-28T14:26:16.847Z,3.85
2022-08-28T14:28:44.563Z,3.90
2022-08-28T14:31:14.662Z,4.00
2022-08-28T14:33:45.437Z,4.45
2022-08-28T14:36:22.914Z,3.97
2022-08-28T14:38:54.090Z,3.45
2022-08-28T14:41:23.976Z,4.82
2022-08-28T14:43:52.857Z,3.45
2022-08-28T14:46:21.958Z,4.65
2022-08-28T14:48:50.107Z,3.97
2022-08-28T14:51:18.203Z,4.03
2022-08-28T14:53:45.823Z,4.57
2022-08-28T14:56:13.262Z,4.15
2022-08-28T14:58:40.900Z,3.58
2022-08-28T15:01:08.506Z,4.05
2022-08-28T15:03:36.481Z,4.28
2022-08-28T15:06:08.904Z,5.28
2022-08-28T15:08:37.546Z,4.60
2022-08-28T15:11:16.556Z,6.25
2022-08-28T15:13:48.459Z,4.97
2022-08-28T15:16:23.190Z,5.35
2022-08-28T15:18:53.210Z,5.20
2022-08-28T15:21:26.803Z,5.22
2022-08-28T15:23:56.727Z,4.68
2022-08-28T15:26:26.865Z,5.03
2022-08-28T15:28:56.196Z,4.88
2022-08-28T15:31:25.197Z,5.35
2022-08-28T15:33:52.928Z,5.55
2022-08-28T15:36:20.666Z,4.70
2022-08-28T15:39:06.287Z,5.38
2022-08-28T15:41:33.815Z,4.78
2022-08-28T15:44:02.541Z,5.32
2022-08-28T15:46:34.124Z,5.07
2022-08-28T15:49:03.832Z,5.55
2022-08-28T15:51:36.405Z,6.20
2022-08-28T15:54:05.506Z,5.70
2022-08-28T15:56:32.982Z,5.43
2022-08-28T15:59:00.507Z,4.95
2022-08-28T16:01:28.036Z,5.80
2022-08-28T16:03:56.204Z,4.75
2022-08-28T16:06:24.231Z,4.75
2022-08-28T16:08:51.703Z,5.68
2022-08-28T16:11:23.213Z,5.97
2022-08-28T16:13:51.695Z,5.00
2022-08-28T16:16:19.462Z,6.80
2022-08-28T16:18:47.226Z,6.80
2022-08-28T16:21:14.721Z,6.55
2022-08-28T16:23:42.904Z,5.13
2022-08-28T16:26:11.188Z,7.53
2022-08-28T16:28:38.829Z,5.85
2022-08-28T16:31:08.030Z,5.68
2022-08-28T16:33:47.436Z,5.55
2022-08-28T16:36:16.061Z,6.30
2022-08-28T16:38:46.291Z,6.47
2022-08-28T16:41:16.122Z,6.30
2022-08-28T16:43:44.351Z,7.43
2022-08-28T16:46:13.514Z,7.57
2022-08-28T16:48:41.770Z,8.18
2022-08-28T16:51:09.574Z,7.15
2022-08-28T16:53:37.543Z,9.57
2022-08-28T16:56:05.594Z,9.60
2022-08-28T16:58:33.635Z,14.15
2022-08-28T17:01:01.118Z,10.00
2022-08-28T17:03:28.674Z,9.35
2022-08-28T17:05:56.789Z,8.57
2022-08-28T17:08:24.637Z,8.27
2022-08-28T17:10:52.280Z,9.50
2022-08-28T17:13:20.053Z,8.73
2022-08-28T17:15:48.611Z,10.77
2022-08-28T17:18:16.170Z,12.95
2022-08-28T17:21:02.343Z,15.50
2022-08-28T17:23:29.968Z,14.40
2022-08-28T17:25:59.207Z,13.10
2022-08-28T17:28:27.499Z,10.00
2022-08-28T17:30:56.756Z,9.93
2022-08-28T17:33:24.531Z,9.75
2022-08-28T17:35:55.284Z,11.23
2022-08-28T17:38:22.713Z,9.77
2022-08-28T17:40:50.103Z,9.45
2022-08-28T17:43:17.551Z,12.32
2022-08-28T17:45:45.551Z,10.77
2022-08-28T17:48:13.441Z,11.77
2022-08-28T17:50:40.979Z,11.35
2022-08-28T17:53:09.237Z,12.23
2022-08-28T17:55:37.507Z,11.65
2022-08-28T17:58:06.029Z,12.00
2022-08-28T18:00:34.897Z,12.63
2022-08-28T18:03:03.104Z,20.75
2022-08-28T18:05:30.707Z,21.25
2022-08-28T18:07:59.926Z,17.10
2022-08-28T18:10:28.171Z,14.50
2022-08-28T18:12:55.695Z,11.00
2022-08-28T18:15:23.322Z,11.30
2022-08-28T18:17:51.459Z,11.00
2022-08-28T18:20:19.275Z,14.95
2022-08-28T18:22:47.135Z,15.90
2022-08-28T18:25:35.979Z,15.52
2022-08-28T18:28:06.084Z,16.13
2022-08-28T18:30:33.678Z,16.08
2022-08-28T18:33:02.960Z,15.93
2022-08-28T18:35:31.697Z,16.02
2022-08-28T18:38:00.416Z,14.73
2022-08-28T18:40:28.987Z,19.33
2022-08-28T18:42:56.562Z,20.48
2022-08-28T18:45:24.061Z,20.60
2022-08-28T18:47:52.855Z,19.98
2022-08-28T18:50:23.900Z,18.05
2022-08-28T18:52:52.737Z,17.30
2022-08-28T18:55:22.370Z,18.83
2022-08-28T18:57:52.743Z,19.15
2022-08-28T19:00:22.328Z,19.58
2022-08-28T19:02:50.440Z,17.65
2022-08-28T19:05:18.330Z,18.08
2022-08-28T19:07:46.061Z,17.92
2022-08-28T19:10:32.073Z,18.33
2022-08-28T19:13:02.248Z,16.60
2022-08-28T19:15:30.492Z,15.95
2022-08-28T19:18:00.656Z,16.40
2022-08-28T19:20:33.618Z,15.85
2022-08-28T19:23:02.058Z,16.70
2022-08-28T19:25:30.916Z,15.73
2022-08-28T19:27:59.961Z,17.20
2022-08-28T19:30:29.757Z,15.63
2022-08-28T19:35:24.922Z,15.10
2022-08-28T19:37:53.570Z,18.45
2022-08-28T19:40:21.855Z,17.25
2022-08-28T19:42:52.976Z,16.67
2022-08-28T19:45:21.391Z,17.35
2022-08-28T19:47:49.211Z,16.77
2022-08-28T19:50:17.054Z,18.23
2022-08-28T19:52:45.763Z,20.40
2022-08-28T19:55:19.575Z,18.88
2022-08-28T19:57:48.993Z,18.35
2022-08-28T20:00:18.754Z,17.58
2022-08-28T20:05:14.221Z,18.27
2022-08-28T20:07:42.003Z,18.92
2022-08-28T20:10:10.575Z,19.08
2022-08-28T20:12:38.889Z,18.55
2022-08-28T20:15:16.457Z,19.05
2022-08-28T20:17:49.383Z,20.40
2022-08-28T20:20:20.087Z,19.35
2022-08-28T20:22:47.784Z,18.90
2022-08-28T20:25:16.014Z,19.98
2022-08-28T20:27:43.659Z,17.35
2022-08-28T20:30:12.898Z,19.55
2022-08-28T20:32:41.352Z,18.48
2022-08-28T20:35:11.403Z,18.00
2022-08-28T20:37:45.392Z,16.27
2022-08-28T20:40:19.279Z,19.15
2022-08-28T20:42:46.836Z,17.38
2022-08-28T20:45:16.117Z,16.27
2022-08-28T20:47:44.352Z,17.45
2022-08-28T20:50:12.836Z,15.45
2022-08-28T20:52:40.485Z,16.45
2022-08-28T20:55:09.722Z,16.85
2022-08-28T20:57:37.431Z,17.02
2022-08-28T21:00:11.445Z,16.15
2022-08-28T21:02:38.963Z,16.05
2022-08-28T21:05:07.081Z,16.35
2022-08-28T21:07:35.478Z,16.48
2022-08-28T21:10:07.773Z,15.68
2022-08-28T21:12:37.548Z,16.25
2022-08-28T21:15:07.205Z,14.68
2022-08-28T21:17:35.089Z,16.33
2022-08-28T21:20:09.672Z,14.52
2022-08-28T21:22:38.615Z,15.50
2022-08-28T21:25:07.798Z,15.63
2022-08-28T21:27:35.683Z,15.45
2022-08-28T21:30:05.078Z,17.67
2022-08-28T21:32:34.382Z,16.05
2022-08-28T21:35:03.255Z,16.10
2022-08-28T21:37:31.379Z,15.40
2022-08-28T21:39:59.890Z,15.10
2022-08-28T21:42:28.362Z,18.05
2022-08-28T21:44:56.635Z,14.80
2022-08-28T21:47:24.962Z,16.38
2022-08-28T21:49:54.653Z,17.65
2022-08-28T21:52:25.699Z,15.32
2022-08-28T21:54:58.337Z,16.83
2022-08-28T21:57:26.387Z,16.23
2022-08-28T21:59:54.167Z,15.93
2022-08-28T22:02:22.117Z,16.80
2022-08-28T22:04:49.802Z,15.48
2022-08-28T22:07:18.377Z,17.27
2022-08-28T22:09:46.330Z,16.10
2022-08-28T22:12:13.698Z,16.25
2022-08-28T22:14:41.140Z,15.77
2022-08-28T22:17:11.228Z,14.75
2022-08-28T22:19:40.119Z,14.95
2022-08-28T22:22:26.931Z,15.80
2022-08-28T22:24:54.821Z,16.58
2022-08-28T22:27:23.068Z,14.00
2022-08-28T22:29:51.263Z,15.25
2022-08-28T22:32:18.961Z,15.52
2022-08-28T22:34:46.694Z,14.85
2022-08-28T22:37:14.463Z,15.07
2022-08-28T22:39:43.160Z,16.20
2022-08-28T22:42:11.450Z,15.15
2022-08-28T22:44:39.278Z,16.10
2022-08-28T22:47:07.504Z,15.95
2022-08-28T22:49:36.009Z,14.60
2022-08-28T22:52:09.702Z,14.85
2022-08-28T22:54:37.666Z,14.88
2022-08-28T22:57:06.210Z,14.07
2022-08-28T22:59:34.705Z,14.90
2022-08-28T23:02:04.134Z,16.00
2022-08-28T23:04:31.818Z,17.15
2022-08-28T23:06:59.259Z,15.25
2022-08-28T23:09:27.855Z,14.93
2022-08-28T23:11:55.363Z,14.88
2022-08-28T23:14:27.965Z,14.70
2022-08-28T23:16:56.316Z,16.80
2022-08-28T23:19:24.205Z,15.95
2022-08-28T23:21:53.007Z,16.60
2022-08-28T23:24:20.684Z,16.52
2022-08-28T23:26:48.389Z,16.65
2022-08-28T23:29:15.898Z,16.08
2022-08-28T23:31:43.596Z,15.75
2022-08-28T23:34:11.254Z,15.20
2022-08-28T23:36:42.978Z,14.60
2022-08-28T23:39:11.237Z,12.68
2022-08-28T23:41:38.984Z,12.82
2022-08-28T23:44:08.955Z,14.48
2022-08-28T23:46:41.198Z,12.77
2022-08-28T23:49:10.220Z,12.10
2022-08-28T23:51:38.112Z,13.48
2022-08-28T23:54:07.068Z,13.35
2022-08-28T23:56:35.053Z,12.70
2022-08-28T23:59:02.635Z,13.10
